Time;durP1;ratioP1;P1;durP2;ratioP2;P2;SDS_P1;SDS_P2;PMS_P1;PMS_P2;Temp;Humidity;BMP_temperature;BMP_pressure;BME280_temperature;BME280_humidity;BME280_pressure;Samples;Min_cycle;Max_cycle;Signal;HPM_P1;HPM_P2
2022/09/13 00:00:47;;;;;;;;;;;;;;;17.53;48.09;100264.81;5064662;28;1048;-60
2022/09/13 00:03:13;;;;;;;;;;;;;;;17.34;47.59;100262.81;5095557;28;1909;-60
2022/09/13 00:05:38;;;;;;;;;;;;;;;17.24;47.16;100268.44;5082727;28;1191;-60
2022/09/13 00:08:04;;;;;;;;;;;;;;;17.25;46.68;100264.56;5086468;28;1072;-59
2022/09/13 00:10:29;;;;;;;;;;;;;;;17.90;47.91;100269.59;5077947;28;1132;-60
2022/09/13 00:12:55;;;;;;;;;;;;;;;17.41;48.16;100273.47;5080870;28;993;-60
2022/09/13 00:15:20;;;;;;;;;;;;;;;17.35;47.55;100283.69;5078604;28;1190;-60
2022/09/13 00:17:46;;;;;;;;;;;;;;;17.34;46.86;100276.56;5062894;28;1109;-61
2022/09/13 00:20:11;;;;;;;;;;;;;;;18.01;48.76;100275.81;5084449;28;1000;-60
2022/09/13 00:22:37;;;;;;;;;;;;;;;14.93;55.57;100273.13;5077903;28;1984;-59
2022/09/13 00:25:03;;;;;;;;;;;;;;;16.56;49.25;100270.06;5078862;28;1084;-59
2022/09/13 00:27:28;;;;;;;;;;;;;;;17.57;49.92;100276.84;5080379;28;1130;-59
2022/09/13 00:29:54;;;;;;;;;;;;;;;17.23;48.83;100275.03;5078075;28;1004;-59
2022/09/13 00:32:19;;;;;;;;;;;;;;;17.09;47.99;100286.69;5076525;28;1124;-59
2022/09/13 00:34:45;;;;;;;;;;;;;;;17.09;47.34;100289.44;5077578;28;1048;-58
2022/09/13 00:37:10;;;;;;;;;;;;;;;18.04;48.48;100288.97;5083658;28;1005;-58
2022/09/13 00:39:35;;;;;;;;;;;;;;;17.47;48.87;100294.28;5078290;28;1059;-59
2022/09/13 00:42:01;;;;;;;;;;;;;;;17.28;47.99;100280.47;5077305;28;1972;-59
2022/09/13 00:44:45;;;;;;;;;;;;;;;17.16;47.38;100288.28;5077314;28;1060;-58
2022/09/13 00:47:11;;;;;;;;;;;;;;;17.74;48.71;100288.22;5072051;28;997;-58
2022/09/13 00:49:37;;;;;;;;;;;;;;;17.44;48.15;100300.38;5085124;28;1016;-58
2022/09/13 00:52:07;;;;;;;;;;;;;;;17.21;47.46;100307.47;5059772;28;1091;-59
2022/09/13 00:54:39;;;;;;;;;;;;;;;17.20;47.42;100317.63;5059498;28;1144;-58
2022/09/13 00:57:04;;;;;;;;;;;;;;;17.82;48.33;100316.19;5077108;28;1163;-58
2022/09/13 00:59:43;;;;;;;;;;;;;;;17.43;47.79;100328.97;5059668;28;1100;-59
2022/09/13 01:02:09;;;;;;;;;;;;;;;17.33;46.98;100332.63;5060653;28;1910;-58
2022/09/13 01:04:34;;;;;;;;;;;;;;;17.21;46.87;100335.78;5059168;28;1064;-59
2022/09/13 01:07:01;;;;;;;;;;;;;;;18.30;47.85;100327.16;5076809;28;1384;-58
2022/09/13 01:09:26;;;;;;;;;;;;;;;17.62;48.53;100326.31;5077057;28;1127;-59
2022/09/13 01:11:55;;;;;;;;;;;;;;;17.48;47.60;100326.16;5083410;28;1032;-58
2022/09/13 01:14:21;;;;;;;;;;;;;;;17.43;46.86;100327.06;5074592;28;894;-58
2022/09/13 01:16:46;;;;;;;;;;;;;;;17.30;46.34;100319.47;5076934;28;981;-58
2022/09/13 01:19:12;;;;;;;;;;;;;;;17.18;46.50;100319.88;5076766;28;1159;-59
2022/09/13 01:21:37;;;;;;;;;;;;;;;17.36;47.06;100321.06;5077330;28;1914;-58
2022/09/13 01:24:15;;;;;;;;;;;;;;;17.63;47.86;100325.19;5076374;28;1207;-60
2022/09/13 01:27:00;;;;;;;;;;;;;;;17.35;48.01;100324.94;5076876;28;905;-60
2022/09/13 01:29:44;;;;;;;;;;;;;;;16.70;52.97;100325.97;5058923;28;1472;-59
2022/09/13 01:32:10;;;;;;;;;;;;;;;16.22;52.09;100333.94;5076362;28;1111;-59
2022/09/13 01:34:38;;;;;;;;;;;;;;;16.85;49.09;100336.03;5076936;28;1151;-59
2022/09/13 01:37:22;;;;;;;;;;;;;;;17.44;49.19;100350.66;5076433;28;1032;-59
2022/09/13 01:39:48;;;;;;;;;;;;;;;17.73;49.95;100349.00;5071198;28;961;-59
2022/09/13 01:42:13;;;;;;;;;;;;;;;17.37;49.23;100343.88;5076790;28;1905;-60
2022/09/13 01:44:48;;;;;;;;;;;;;;;17.25;48.03;100353.31;5076183;28;1182;-60
2022/09/13 01:47:32;;;;;;;;;;;;;;;17.22;47.25;100347.56;5088499;28;1004;-60
2022/09/13 01:50:13;;;;;;;;;;;;;;;17.08;46.66;100342.75;5077529;28;1056;-61
2022/09/13 01:52:44;;;;;;;;;;;;;;;17.89;48.37;100333.16;5076704;28;1080;-61
2022/09/13 01:55:26;;;;;;;;;;;;;;;17.50;48.23;100345.13;5076463;28;1099;-58
2022/09/13 01:57:57;;;;;;;;;;;;;;;17.28;47.32;100335.44;5078244;28;1099;-59
2022/09/13 02:00:23;;;;;;;;;;;;;;;17.13;46.89;100343.81;5078346;28;1233;-60
2022/09/13 02:02:50;;;;;;;;;;;;;;;17.28;47.10;100329.94;5080121;28;1970;-61
2022/09/13 02:05:15;;;;;;;;;;;;;;;17.97;48.29;100342.72;5075993;28;1385;-61
2022/09/13 02:07:41;;;;;;;;;;;;;;;17.47;48.09;100331.97;5076071;28;1134;-60
2022/09/13 02:10:09;;;;;;;;;;;;;;;17.39;47.27;100326.00;5058124;28;1234;-60
2022/09/13 02:12:35;;;;;;;;;;;;;;;17.38;46.60;100329.03;5083099;28;1067;-60
2022/09/13 02:15:16;;;;;;;;;;;;;;;17.26;46.40;100315.66;5056714;28;1152;-60
2022/09/13 02:17:56;;;;;;;;;;;;;;;17.08;46.47;100323.53;5066755;28;981;-60
2022/09/13 02:20:23;;;;;;;;;;;;;;;17.42;46.94;100325.41;5076383;28;1071;-60
2022/09/13 02:22:51;;;;;;;;;;;;;;;17.75;48.17;100322.88;5058393;28;1909;-60
2022/09/13 02:25:17;;;;;;;;;;;;;;;17.50;47.72;100314.88;5057889;28;1100;-59
2022/09/13 02:27:44;;;;;;;;;;;;;;;17.38;47.12;100301.53;5069112;28;1159;-57
2022/09/13 02:30:10;;;;;;;;;;;;;;;17.35;46.54;100302.94;5058440;28;1058;-58
2022/09/13 02:32:37;;;;;;;;;;;;;;;17.22;46.43;100303.59;5058204;28;1159;-58
2022/09/13 02:35:04;;;;;;;;;;;;;;;17.17;46.21;100317.41;5085356;28;949;-59
2022/09/13 02:37:30;;;;;;;;;;;;;;;17.09;46.05;100311.41;5078144;28;948;-59
2022/09/13 02:40:01;;;;;;;;;;;;;;;17.03;45.85;100314.50;5053984;28;1084;-59
2022/09/13 02:42:33;;;;;;;;;;;;;;;18.02;47.19;100321.47;5057885;28;1913;-59
2022/09/13 02:44:59;;;;;;;;;;;;;;;17.40;47.23;100322.13;5075932;28;1008;-59
2022/09/13 02:47:36;;;;;;;;;;;;;;;17.20;47.14;100322.31;5076009;28;958;-58
2022/09/13 02:50:11;;;;;;;;;;;;;;;17.14;46.26;100323.47;5076901;28;992;-58
2022/09/13 02:52:52;;;;;;;;;;;;;;;17.07;45.90;100324.63;5076118;28;989;-58
2022/09/13 02:55:31;;;;;;;;;;;;;;;17.64;46.46;100324.06;5075914;28;1213;-59
2022/09/13 02:58:26;;;;;;;;;;;;;;;17.44;47.61;100325.91;5061462;28;1064;-58
2022/09/13 03:00:51;;;;;;;;;;;;;;;18.00;47.78;100323.69;5058252;28;1261;-59
2022/09/13 03:03:17;;;;;;;;;;;;;;;15.67;55.36;100312.75;5090438;28;1913;-59
2022/09/13 03:05:42;;;;;;;;;;;;;;;16.30;51.40;100322.38;5077640;28;1079;-58
2022/09/13 03:08:09;;;;;;;;;;;;;;;17.27;49.93;100323.63;5079185;28;1021;-58
2022/09/13 03:10:51;;;;;;;;;;;;;;;17.48;49.40;100325.38;5061489;28;1112;-59
2022/09/13 03:13:16;;;;;;;;;;;;;;;17.15;48.85;100314.94;5061244;28;1077;-58
2022/09/13 03:15:58;;;;;;;;;;;;;;;17.97;49.74;100329.78;5087336;28;984;-61
2022/09/13 03:18:29;;;;;;;;;;;;;;;15.29;54.90;100317.75;5073910;28;1008;-61
2022/09/13 03:20:55;;;;;;;;;;;;;;;16.58;49.59;100334.56;5080102;28;1147;-61
2022/09/13 03:23:20;;;;;;;;;;;;;;;17.63;50.64;100327.94;5086951;28;1909;-59
2022/09/13 03:25:46;;;;;;;;;;;;;;;17.18;49.76;100324.53;5078912;28;985;-61
2022/09/13 03:28:31;;;;;;;;;;;;;;;17.16;48.32;100337.75;5079359;28;1142;-61
2022/09/13 03:31:05;;;;;;;;;;;;;;;17.97;49.01;100332.53;5087640;28;1164;-61
2022/09/13 03:33:32;;;;;;;;;;;;;;;17.57;49.82;100340.09;5070933;28;1032;-59
2022/09/13 03:36:02;;;;;;;;;;;;;;;17.33;48.47;100340.06;5060844;28;1056;-60
2022/09/13 03:39:06;;;;;;;;;;;;;;;17.17;48.43;100348.44;5063907;28;1156;-60
2022/09/13 03:41:32;;;;;;;;;;;;;;;17.64;49.10;100348.00;4980652;28;1293;-60
2022/09/13 03:44:04;;;;;;;;;;;;;;;17.35;48.39;100352.41;4977350;28;1078;-60
2022/09/13 03:46:31;;;;;;;;;;;;;;;17.27;47.23;100350.28;5040763;28;951;-62
2022/09/13 03:48:57;;;;;;;;;;;;;;;17.12;46.92;100353.97;5054667;28;1402;-67
2022/09/13 03:51:22;;;;;;;;;;;;;;;17.28;47.11;100351.94;5077342;28;1326;-62
2022/09/13 03:53:58;;;;;;;;;;;;;;;17.78;48.67;100351.69;5061209;28;1213;-63
2022/09/13 03:56:24;;;;;;;;;;;;;;;17.43;47.96;100359.19;5078549;28;1291;-62
2022/09/13 03:58:49;;;;;;;;;;;;;;;17.33;47.08;100362.84;5078757;28;1227;-63
2022/09/13 04:01:18;;;;;;;;;;;;;;;17.24;46.74;100362.66;5081724;28;1354;-61
2022/09/13 04:03:44;;;;;;;;;;;;;;;17.27;46.46;100361.28;5075287;28;2272;-58
2022/09/13 04:06:09;;;;;;;;;;;;;;;17.82;48.12;100363.75;5077867;28;1535;-60
2022/09/13 04:08:35;;;;;;;;;;;;;;;17.45;47.63;100363.28;5072587;28;1281;-62
2022/09/13 04:11:00;;;;;;;;;;;;;;;17.37;46.87;100361.16;5085164;28;981;-61
2022/09/13 04:13:26;;;;;;;;;;;;;;;17.16;46.73;100362.47;5078103;28;1075;-62
2022/09/13 04:15:52;;;;;;;;;;;;;;;17.17;46.17;100364.13;5074196;28;1420;-62
2022/09/13 04:18:17;;;;;;;;;;;;;;;17.15;45.90;100364.38;5077836;28;1052;-61
2022/09/13 04:20:43;;;;;;;;;;;;;;;16.99;45.96;100371.94;5077980;28;1021;-59
2022/09/13 04:23:08;;;;;;;;;;;;;;;17.58;46.72;100371.97;5077789;28;1972;-61
2022/09/13 04:25:36;;;;;;;;;;;;;;;17.67;47.72;100377.66;5077666;28;1088;-60
2022/09/13 04:28:02;;;;;;;;;;;;;;;17.35;47.25;100374.41;5057357;28;990;-60
2022/09/13 04:30:28;;;;;;;;;;;;;;;17.18;46.73;100371.22;5077788;28;1005;-59
2022/09/13 04:32:55;;;;;;;;;;;;;;;17.15;46.32;100382.81;5077715;28;1045;-60
2022/09/13 04:35:21;;;;;;;;;;;;;;;17.06;45.95;100383.41;5077637;28;974;-61
2022/09/13 04:37:46;;;;;;;;;;;;;;;18.27;47.23;100382.78;5081538;28;1171;-62
2022/09/13 04:40:12;;;;;;;;;;;;;;;15.04;55.05;100385.13;5070005;28;1208;-61
2022/09/13 04:42:38;;;;;;;;;;;;;;;16.24;50.25;100383.84;5072972;28;1901;-61
2022/09/13 04:45:05;;;;;;;;;;;;;;;17.74;49.52;100392.72;5072638;28;1366;-61
2022/09/13 04:47:30;;;;;;;;;;;;;;;17.25;49.31;100391.78;5070489;28;1334;-60
2022/09/13 04:49:56;;;;;;;;;;;;;;;17.09;48.10;100393.81;5071080;28;966;-60
2022/09/13 04:52:21;;;;;;;;;;;;;;;17.11;47.25;100390.81;5079726;28;1110;-59
2022/09/13 04:54:47;;;;;;;;;;;;;;;17.05;46.80;100387.25;5071610;28;1008;-59
2022/09/13 04:57:13;;;;;;;;;;;;;;;16.92;46.40;100398.91;5077103;28;1255;-62
2022/09/13 04:59:38;;;;;;;;;;;;;;;17.58;47.36;100394.78;5074516;28;1013;-60
2022/09/13 05:02:04;;;;;;;;;;;;;;;17.60;48.12;100400.81;5074456;28;1913;-63
2022/09/13 05:04:30;;;;;;;;;;;;;;;17.23;47.86;100388.50;5078186;28;952;-62
2022/09/13 05:06:57;;;;;;;;;;;;;;;17.17;47.21;100402.59;5077313;28;1155;-65
2022/09/13 05:09:23;;;;;;;;;;;;;;;17.81;47.68;100403.38;5071566;28;1437;-61
2022/09/13 05:11:48;;;;;;;;;;;;;;;17.50;47.92;100402.84;5075662;28;1219;-60
2022/09/13 05:14:14;;;;;;;;;;;;;;;17.31;47.61;100403.56;5060505;28;1196;-60
2022/09/13 05:16:39;;;;;;;;;;;;;;;17.27;46.84;100394.25;5075955;28;1472;-58
2022/09/13 05:19:05;;;;;;;;;;;;;;;17.16;46.32;100401.75;5064081;28;1200;-58
2022/09/13 05:21:30;;;;;;;;;;;;;;;17.09;45.96;100393.81;5070097;28;1032;-57
2022/09/13 05:23:56;;;;;;;;;;;;;;;17.18;46.53;100404.19;5071884;28;1913;-57
2022/09/13 05:26:21;;;;;;;;;;;;;;;17.69;47.46;100405.69;5069198;28;1279;-59
2022/09/13 05:28:47;;;;;;;;;;;;;;;17.32;47.48;100399.72;5079696;28;1230;-59
2022/09/13 05:31:16;;;;;;;;;;;;;;;17.23;46.65;100399.47;5077761;28;1008;-60
2022/09/13 05:33:41;;;;;;;;;;;;;;;17.19;46.19;100403.09;5077073;28;1040;-60
2022/09/13 05:36:07;;;;;;;;;;;;;;;17.50;46.72;100411.09;5073693;28;1174;-60
2022/09/13 05:38:32;;;;;;;;;;;;;;;17.69;47.96;100405.69;5076685;28;1053;-61
2022/09/13 05:41:01;;;;;;;;;;;;;;;17.69;47.34;100401.00;5076150;28;1263;-62
2022/09/13 05:43:28;;;;;;;;;;;;;;;18.39;46.73;100398.88;5076667;28;1905;-63
2022/09/13 05:46:10;;;;;;;;;;;;;;;17.90;48.11;100400.81;5053052;28;1215;-63
2022/09/13 05:48:35;;;;;;;;;;;;;;;17.74;48.94;100398.22;5076059;28;1005;-61
2022/09/13 05:51:04;;;;;;;;;;;;;;;17.57;49.32;100389.56;5072671;28;1008;-62
2022/09/13 05:53:30;;;;;;;;;;;;;;;17.43;49.90;100393.00;5076978;28;972;-62
2022/09/13 05:55:56;;;;;;;;;;;;;;;17.37;50.24;100396.91;5076140;28;1005;-62
2022/09/13 05:58:22;;;;;;;;;;;;;;;17.26;50.47;100400.84;5075399;28;1092;-61
2022/09/13 06:00:54;;;;;;;;;;;;;;;17.16;50.78;100407.25;5075435;28;1020;-62
2022/09/13 06:03:20;;;;;;;;;;;;;;;17.05;51.20;100406.47;5075346;28;1906;-61
2022/09/13 06:05:45;;;;;;;;;;;;;;;17.09;51.21;100407.56;5088388;28;1076;-61
2022/09/13 06:08:11;;;;;;;;;;;;;;;16.98;51.79;100408.75;5076512;28;1001;-62
2022/09/13 06:10:36;;;;;;;;;;;;;;;16.96;51.64;100405.47;5076214;28;1112;-62
2022/09/13 06:13:01;;;;;;;;;;;;;;;16.87;51.91;100415.38;5075785;28;1013;-62
2022/09/13 06:15:27;;;;;;;;;;;;;;;16.82;52.25;100410.75;5078518;28;960;-62
2022/09/13 06:17:52;;;;;;;;;;;;;;;16.77;52.53;100414.34;5076001;28;1261;-62
2022/09/13 06:20:18;;;;;;;;;;;;;;;16.74;52.57;100425.88;5075907;28;1084;-62
2022/09/13 06:22:43;;;;;;;;;;;;;;;16.70;52.74;100424.81;5076111;28;1910;-62
2022/09/13 06:25:09;;;;;;;;;;;;;;;16.64;52.93;100423.19;5076082;28;1151;-62
2022/09/13 06:27:35;;;;;;;;;;;;;;;16.65;52.93;100426.75;5077879;28;1009;-63
2022/09/13 06:30:00;;;;;;;;;;;;;;;16.55;53.00;100422.13;5085542;28;1075;-63
2022/09/13 06:32:26;;;;;;;;;;;;;;;16.49;53.43;100428.75;5080242;28;1139;-62
2022/09/13 06:34:51;;;;;;;;;;;;;;;16.50;53.45;100422.19;5079848;28;985;-61
2022/09/13 06:37:16;;;;;;;;;;;;;;;16.45;53.38;100424.94;5087210;28;969;-62
2022/09/13 06:39:42;;;;;;;;;;;;;;;16.42;53.45;100429.91;5075445;28;1202;-61
2022/09/13 06:42:07;;;;;;;;;;;;;;;16.40;53.77;100425.78;5087202;28;1913;-62
2022/09/13 06:44:38;;;;;;;;;;;;;;;16.34;53.77;100424.16;5060351;28;2132;-62
2022/09/13 06:47:03;;;;;;;;;;;;;;;16.35;53.67;100426.59;5092986;28;1019;-62
2022/09/13 06:49:30;;;;;;;;;;;;;;;16.31;54.04;100427.47;5086657;28;969;-62
2022/09/13 06:51:56;;;;;;;;;;;;;;;16.28;54.00;100434.31;5080996;28;1067;-62
2022/09/13 06:54:21;;;;;;;;;;;;;;;16.25;54.20;100419.25;5088395;28;1107;-62
2022/09/13 06:56:47;;;;;;;;;;;;;;;16.19;54.02;100434.09;5079155;28;1198;-61
2022/09/13 06:59:12;;;;;;;;;;;;;;;16.19;53.98;100423.13;5079430;28;1076;-62
2022/09/13 07:01:38;;;;;;;;;;;;;;;17.45;52.07;100426.50;5079704;28;1067;-62
2022/09/13 07:04:05;;;;;;;;;;;;;;;17.13;52.74;100429.00;5083533;28;1968;-62
2022/09/13 07:06:34;;;;;;;;;;;;;;;16.78;53.81;100426.16;5087176;28;1056;-62
2022/09/13 07:08:59;;;;;;;;;;;;;;;16.62;54.16;100422.69;5079365;28;1100;-62
2022/09/13 07:11:25;;;;;;;;;;;;;;;16.51;54.42;100421.06;5079408;28;949;-62
2022/09/13 07:13:51;;;;;;;;;;;;;;;16.43;54.37;100426.03;5079838;28;1021;-62
2022/09/13 07:16:17;;;;;;;;;;;;;;;16.42;54.50;100418.09;5082576;28;993;-63
2022/09/13 07:18:43;;;;;;;;;;;;;;;16.39;54.38;100418.66;5083866;28;995;-62
2022/09/13 07:21:09;;;;;;;;;;;;;;;16.37;54.56;100424.44;5079415;28;969;-63
2022/09/13 07:23:35;;;;;;;;;;;;;;;16.32;54.57;100432.66;5078763;28;1905;-62
2022/09/13 07:26:03;;;;;;;;;;;;;;;16.90;53.49;100423.06;5078908;28;1123;-62
2022/09/13 07:28:29;;;;;;;;;;;;;;;17.41;52.80;100427.38;5081036;28;1021;-62
2022/09/13 07:30:57;;;;;;;;;;;;;;;16.85;54.04;100425.84;5081506;28;1170;-62
2022/09/13 07:33:23;;;;;;;;;;;;;;;16.70;54.59;100424.81;5078868;28;1087;-62
2022/09/13 07:35:53;;;;;;;;;;;;;;;16.60;54.46;100422.94;5078714;28;1092;-62
2022/09/13 07:38:19;;;;;;;;;;;;;;;16.53;54.91;100425.16;5079004;28;953;-61
2022/09/13 07:40:52;;;;;;;;;;;;;;;16.49;54.84;100428.75;5086432;28;1063;-61
2022/09/13 07:43:17;;;;;;;;;;;;;;;16.45;54.80;100416.69;5078573;28;1909;-62
2022/09/13 07:45:42;;;;;;;;;;;;;;;16.34;54.78;100422.25;5078503;28;1143;-62
2022/09/13 07:48:08;;;;;;;;;;;;;;;16.34;54.96;100429.63;5078326;28;957;-62
2022/09/13 07:50:34;;;;;;;;;;;;;;;16.26;55.13;100433.78;5078951;28;989;-62
2022/09/13 07:52:59;;;;;;;;;;;;;;;17.08;53.81;100438.91;5086027;28;1020;-62
2022/09/13 07:55:25;;;;;;;;;;;;;;;17.36;53.30;100430.16;5078734;28;1221;-62
2022/09/13 07:57:50;;;;;;;;;;;;;;;16.85;54.47;100425.84;5078522;28;1161;-62
2022/09/13 08:00:16;;;;;;;;;;;;;;;16.67;55.04;100425.38;5078599;28;1103;-62
2022/09/13 08:02:41;;;;;;;;;;;;;;;16.58;54.84;100427.91;5078395;28;1989;-62
2022/09/13 08:05:07;;;;;;;;;;;;;;;16.54;55.08;100428.75;5082967;28;997;-62
2022/09/13 08:07:32;;;;;;;;;;;;;;;16.43;55.09;100425.22;5078498;28;1151;-63
2022/09/13 08:09:58;;;;;;;;;;;;;;;16.45;55.21;100433.16;5078551;28;992;-62
2022/09/13 08:12:23;;;;;;;;;;;;;;;16.43;55.12;100431.53;5078519;28;1150;-62
2022/09/13 08:14:49;;;;;;;;;;;;;;;17.75;52.71;100432.03;5078828;28;997;-63
2022/09/13 08:17:14;;;;;;;;;;;;;;;17.14;54.10;100420.47;5077749;28;985;-62
2022/09/13 08:19:39;;;;;;;;;;;;;;;16.84;55.10;100422.25;5078203;28;973;-62
2022/09/13 08:22:05;;;;;;;;;;;;;;;16.69;55.04;100416.84;5077736;28;1972;-62
2022/09/13 08:24:30;;;;;;;;;;;;;;;16.60;55.28;100424.88;5088127;28;1012;-62
2022/09/13 08:26:56;;;;;;;;;;;;;;;16.55;55.29;100416.66;5077502;28;1136;-62
2022/09/13 08:29:21;;;;;;;;;;;;;;;16.48;55.29;100410.66;5082439;28;1214;-62
2022/09/13 08:31:47;;;;;;;;;;;;;;;16.45;55.41;100411.22;5077913;28;1024;-62
2022/09/13 08:34:13;;;;;;;;;;;;;;;16.39;55.41;100410.41;5077367;28;1123;-62
2022/09/13 08:36:40;;;;;;;;;;;;;;;16.38;55.46;100408.78;5077746;28;1064;-62
2022/09/13 08:39:05;;;;;;;;;;;;;;;16.28;55.27;100411.56;5077963;28;965;-62
2022/09/13 08:41:46;;;;;;;;;;;;;;;16.51;55.20;100404.59;5079511;28;977;-63
2022/09/13 08:44:12;;;;;;;;;;;;;;;17.41;53.59;100403.47;5082684;28;976;-62
2022/09/13 08:46:37;;;;;;;;;;;;;;;16.85;55.06;100401.13;5077360;28;1182;-62
2022/09/13 08:49:04;;;;;;;;;;;;;;;16.66;55.58;100401.78;5077806;28;1009;-63
2022/09/13 08:51:41;;;;;;;;;;;;;;;16.56;55.41;100393.59;5059656;28;985;-64
2022/09/13 08:54:09;;;;;;;;;;;;;;;16.51;55.78;100399.09;5077915;28;901;-63
2022/09/13 08:56:37;;;;;;;;;;;;;;;16.43;55.42;100392.28;5077144;28;977;-63
2022/09/13 08:59:21;;;;;;;;;;;;;;;16.45;55.36;100392.81;5059536;28;1013;-62
2022/09/13 09:01:50;;;;;;;;;;;;;;;16.41;55.20;100400.81;5077148;28;1913;-62
2022/09/13 09:04:26;;;;;;;;;;;;;;;16.35;55.45;100384.63;5059612;28;1103;-63
2022/09/13 09:07:07;;;;;;;;;;;;;;;16.30;55.29;100376.44;5054927;28;1192;-62
2022/09/13 09:09:33;;;;;;;;;;;;;;;17.40;53.87;100382.59;5072691;28;1068;-62
2022/09/13 09:12:01;;;;;;;;;;;;;;;17.20;54.28;100382.78;5078276;28;1123;-63
2022/09/13 09:14:30;;;;;;;;;;;;;;;16.80;55.29;100379.19;5067307;28;1063;-63
2022/09/13 09:17:06;;;;;;;;;;;;;;;16.68;55.61;100372.13;5060716;28;1001;-63
2022/09/13 09:19:33;;;;;;;;;;;;;;;16.60;55.61;100369.97;5076756;28;1016;-63
2022/09/13 09:21:58;;;;;;;;;;;;;;;16.54;55.77;100365.63;5076555;28;1980;-62
2022/09/13 09:24:24;;;;;;;;;;;;;;;16.43;55.92;100359.34;5059097;28;1124;-63
2022/09/13 09:26:50;;;;;;;;;;;;;;;16.44;55.73;100371.97;5076885;28;1057;-62
2022/09/13 09:29:20;;;;;;;;;;;;;;;16.38;55.63;100368.44;5055523;28;1195;-63
2022/09/13 09:32:08;;;;;;;;;;;;;;;16.38;55.42;100365.72;5076496;28;989;-62
2022/09/13 09:34:41;;;;;;;;;;;;;;;16.30;55.80;100366.28;5076827;28;1119;-62
2022/09/13 09:37:36;;;;;;;;;;;;;;;17.70;53.69;100363.34;5076717;28;969;-63
2022/09/13 09:40:04;;;;;;;;;;;;;;;17.02;55.50;100371.34;5046404;28;1424;-62
2022/09/13 09:42:31;;;;;;;;;;;;;;;16.81;55.71;100375.34;5060953;28;1910;-62
2022/09/13 09:45:04;;;;;;;;;;;;;;;16.66;55.91;100373.50;5063316;28;1004;-61
2022/09/13 09:47:43;;;;;;;;;;;;;;;16.58;55.79;100370.25;5073960;28;1500;-63
2022/09/13 09:50:28;;;;;;;;;;;;;;;16.54;55.99;100371.91;5057672;28;1252;-63
2022/09/13 09:53:13;;;;;;;;;;;;;;;16.47;56.02;100379.66;5050944;28;1212;-64
2022/09/13 09:55:40;;;;;;;;;;;;;;;16.42;55.94;100364.03;5065449;28;1139;-63
2022/09/13 09:58:07;;;;;;;;;;;;;;;16.39;55.91;100367.31;5043808;28;1482;-60
2022/09/13 10:00:34;;;;;;;;;;;;;;;16.39;55.91;100374.75;5074589;28;1152;-60
2022/09/13 10:03:15;;;;;;;;;;;;;;;16.42;55.81;100372.28;5075371;28;1914;-59
2022/09/13 10:05:41;;;;;;;;;;;;;;;17.69;53.97;100379.00;5054113;28;1231;-62
2022/09/13 10:08:07;;;;;;;;;;;;;;;16.98;55.50;100375.78;5061263;28;1346;-58
2022/09/13 10:10:35;;;;;;;;;;;;;;;16.80;56.19;100379.19;5081481;28;1057;-59
2022/09/13 10:13:01;;;;;;;;;;;;;;;16.56;56.19;100357.91;5075833;28;1240;-60
2022/09/13 10:15:28;;;;;;;;;;;;;;;16.54;56.17;100376.59;5053274;28;1258;-61
2022/09/13 10:18:00;;;;;;;;;;;;;;;16.54;56.13;100374.66;5074240;28;1160;-61
2022/09/13 10:20:26;;;;;;;;;;;;;;;16.53;56.23;100373.00;5069525;28;1280;-63
2022/09/13 10:23:10;;;;;;;;;;;;;;;16.45;55.99;100375.53;5079143;28;1988;-66
2022/09/13 10:25:36;;;;;;;;;;;;;;;16.40;56.07;100376.41;5076262;28;1306;-64
2022/09/13 10:28:01;;;;;;;;;;;;;;;16.37;56.10;100375.03;5080053;28;1234;-65
2022/09/13 10:30:37;;;;;;;;;;;;;;;16.51;55.83;100374.41;5062311;28;1152;-64
2022/09/13 10:33:02;;;;;;;;;;;;;;;17.78;54.30;100377.28;5084117;28;1135;-66
2022/09/13 10:35:28;;;;;;;;;;;;;;;17.04;56.05;100373.81;5064863;28;1009;-60
2022/09/13 10:37:53;;;;;;;;;;;;;;;16.82;56.35;100377.78;5066732;28;1576;-61
2022/09/13 10:40:26;;;;;;;;;;;;;;;16.68;56.18;100377.59;5082907;28;1203;-61
2022/09/13 10:42:52;;;;;;;;;;;;;;;16.63;56.26;100374.88;5062072;28;1910;-65
2022/09/13 10:45:21;;;;;;;;;;;;;;;16.55;56.50;100372.72;5066000;28;1259;-63
2022/09/13 10:47:47;;;;;;;;;;;;;;;16.53;56.34;100369.47;5065049;28;1185;-63
2022/09/13 10:50:21;;;;;;;;;;;;;;;16.49;56.24;100373.88;5082432;28;1000;-68
2022/09/13 10:52:47;;;;;;;;;;;;;;;16.45;56.13;100373.59;5084510;28;1112;-63
2022/09/13 10:55:19;;;;;;;;;;;;;;;17.28;55.41;100373.91;5082778;28;1285;-67
2022/09/13 10:57:46;;;;;;;;;;;;;;;17.26;55.56;100367.88;5067165;28;1470;-62
2022/09/13 11:00:12;;;;;;;;;;;;;;;16.87;56.13;100368.69;5082893;28;1144;-60
2022/09/13 11:03:07;;;;;;;;;;;;;;;16.77;56.15;100356.69;5080254;28;1910;-60
2022/09/13 11:05:36;;;;;;;;;;;;;;;16.63;56.47;100352.91;5058666;28;1424;-59
2022/09/13 11:08:20;;;;;;;;;;;;;;;16.55;56.49;100340.63;5076220;28;1282;-58
2022/09/13 11:11:00;;;;;;;;;;;;;;;16.50;56.54;100359.06;5079383;28;1024;-58
2022/09/13 11:13:44;;;;;;;;;;;;;;;16.47;56.10;100354.13;5084650;28;1092;-61
2022/09/13 11:16:15;;;;;;;;;;;;;;;16.44;56.26;100352.78;5080657;28;1005;-60
2022/09/13 11:18:45;;;;;;;;;;;;;;;16.39;56.26;100342.63;5071370;28;924;-60
2022/09/13 11:21:25;;;;;;;;;;;;;;;16.91;56.26;100353.31;5061624;28;1005;-57
2022/09/13 11:23:54;;;;;;;;;;;;;;;17.36;55.75;100337.56;5078449;28;1960;-60
2022/09/13 11:26:19;;;;;;;;;;;;;;;16.88;56.86;100335.47;5078760;28;989;-59
2022/09/13 11:28:47;;;;;;;;;;;;;;;16.71;56.86;100343.28;5078444;28;1290;-59
2022/09/13 11:31:31;;;;;;;;;;;;;;;16.62;56.93;100340.31;5075412;28;925;-62
2022/09/13 11:34:10;;;;;;;;;;;;;;;16.57;56.63;100343.91;5085489;28;1015;-60
2022/09/13 11:36:48;;;;;;;;;;;;;;;16.46;56.56;100341.50;5050819;28;1244;-62
2022/09/13 11:39:40;;;;;;;;;;;;;;;16.46;56.19;100338.75;5065645;28;1044;-59
2022/09/13 11:42:25;;;;;;;;;;;;;;;16.38;56.50;100334.69;5032099;28;1910;-60
2022/09/13 11:45:13;;;;;;;;;;;;;;;16.37;56.13;100327.56;5060906;28;1196;-60
2022/09/13 11:47:42;;;;;;;;;;;;;;;17.03;56.03;100331.81;5060256;28;1060;-59
2022/09/13 11:50:17;;;;;;;;;;;;;;;17.49;55.92;100325.06;5072371;28;1203;-62
2022/09/13 11:53:01;;;;;;;;;;;;;;;16.93;57.03;100324.47;5077157;28;1061;-60
2022/09/13 11:55:31;;;;;;;;;;;;;;;16.75;56.87;100328.69;5075904;28;1212;-58
2022/09/13 11:58:03;;;;;;;;;;;;;;;16.64;56.82;100320.81;5077119;28;1132;-57
2022/09/13 12:00:29;;;;;;;;;;;;;;;16.55;56.96;100317.84;5074705;28;1159;-59
2022/09/13 12:03:13;;;;;;;;;;;;;;;16.55;56.79;100323.31;5075712;28;1985;-58
2022/09/13 12:05:50;;;;;;;;;;;;;;;16.49;56.87;100313.50;5077266;28;1088;-59
2022/09/13 12:08:17;;;;;;;;;;;;;;;16.49;56.77;100318.97;5049796;28;1421;-61
2022/09/13 12:10:45;;;;;;;;;;;;;;;16.41;56.79;100323.13;5057316;28;1302;-60
2022/09/13 12:13:16;;;;;;;;;;;;;;;16.39;56.55;100342.63;5076582;28;1016;-61
2022/09/13 12:15:41;;;;;;;;;;;;;;;16.34;56.40;100323.47;5060088;28;1092;-62
2022/09/13 12:18:12;;;;;;;;;;;;;;;17.24;56.38;100337.13;5052279;28;986;-61
2022/09/13 12:20:41;;;;;;;;;;;;;;;17.15;56.78;100338.84;5079053;28;1090;-61
2022/09/13 12:23:11;;;;;;;;;;;;;;;16.79;57.33;100355.56;5076362;28;1886;-61
2022/09/13 12:26:00;;;;;;;;;;;;;;;16.67;57.34;100342.22;5064753;28;1016;-62
2022/09/13 12:28:30;;;;;;;;;;;;;;;16.60;57.22;100342.50;5049419;28;1155;-61
2022/09/13 12:31:00;;;;;;;;;;;;;;;16.52;57.02;100338.47;5066048;28;993;-62
2022/09/13 12:33:25;;;;;;;;;;;;;;;16.42;57.03;100342.09;5055867;28;982;-62
2022/09/13 12:36:09;;;;;;;;;;;;;;;16.45;56.79;100340.66;5077696;28;953;-62
2022/09/13 12:38:35;;;;;;;;;;;;;;;16.38;56.91;100335.53;5074335;28;1392;-61
2022/09/13 12:41:19;;;;;;;;;;;;;;;16.32;56.71;100339.38;5080110;28;1187;-61
2022/09/13 12:43:47;;;;;;;;;;;;;;;17.53;56.16;100337.13;5071576;28;1913;-62
2022/09/13 12:46:16;;;;;;;;;;;;;;;16.96;57.24;100339.56;5080243;28;1067;-61
2022/09/13 12:48:49;;;;;;;;;;;;;;;16.70;57.56;100342.44;5077270;28;1329;-62
2022/09/13 12:51:17;;;;;;;;;;;;;;;16.60;57.60;100350.75;5069694;28;1124;-60
2022/09/13 12:53:45;;;;;;;;;;;;;;;16.52;57.31;100351.34;5064679;28;1125;-62
2022/09/13 12:56:30;;;;;;;;;;;;;;;16.51;56.95;100357.94;5068064;28;901;-61
2022/09/13 12:58:58;;;;;;;;;;;;;;;16.40;56.90;100355.25;5066712;28;1233;-62